sensor_id;sensor_type;location;lat;lon;timestamp;pressure;altitude;pressure_sealevel;temperature;humidity
72414;BME280;60995;52.154;4.498;2023-06-10T00:01:52;101476.03;;;22.80;47.15
72414;BME280;60995;52.154;4.498;2023-06-10T00:04:11;101467.91;;;22.72;47.34
72414;BME280;60995;52.154;4.498;2023-06-10T00:06:28;101476.88;;;22.74;47.24
72414;BME280;60995;52.154;4.498;2023-06-10T00:08:46;101476.41;;;22.70;47.49
72414;BME280;60995;52.154;4.498;2023-06-10T00:11:03;101480.19;;;22.62;48.00
72414;BME280;60995;52.154;4.498;2023-06-10T00:13:19;101484.19;;;22.53;47.87
72414;BME280;60995;52.154;4.498;2023-06-10T00:15:35;101490.75;;;22.52;48.34
72414;BME280;60995;52.154;4.498;2023-06-10T00:17:52;101488.00;;;22.52;48.42
72414;BME280;60995;52.154;4.498;2023-06-10T00:20:09;101479.84;;;22.44;48.45
72414;BME280;60995;52.154;4.498;2023-06-10T00:22:27;101483.41;;;22.38;48.78
72414;BME280;60995;52.154;4.498;2023-06-10T00:24:45;101476.28;;;22.28;48.68
72414;BME280;60995;52.154;4.498;2023-06-10T00:27:01;101488.41;;;22.27;49.23
72414;BME280;60995;52.154;4.498;2023-06-10T00:29:18;101475.38;;;22.21;49.15
72414;BME280;60995;52.154;4.498;2023-06-10T00:31:38;101481.97;;;22.20;49.44
72414;BME280;60995;52.154;4.498;2023-06-10T00:33:54;101475.38;;;22.21;49.21
72414;BME280;60995;52.154;4.498;2023-06-10T00:36:11;101480.25;;;22.19;49.29
72414;BME280;60995;52.154;4.498;2023-06-10T00:38:27;101476.09;;;22.08;49.67
72414;BME280;60995;52.154;4.498;2023-06-10T00:40:46;101483.97;;;22.05;50.03
72414;BME280;60995;52.154;4.498;2023-06-10T00:43:03;101480.78;;;22.08;49.70
72414;BME280;60995;52.154;4.498;2023-06-10T00:45:19;101485.22;;;22.02;49.72
72414;BME280;60995;52.154;4.498;2023-06-10T00:47:35;101482.38;;;21.95;49.88
72414;BME280;60995;52.154;4.498;2023-06-10T00:49:52;101484.88;;;21.90;49.85
72414;BME280;60995;52.154;4.498;2023-06-10T00:52:11;101485.41;;;22.01;49.60
72414;BME280;60995;52.154;4.498;2023-06-10T00:54:31;101478.22;;;21.85;49.74
72414;BME280;60995;52.154;4.498;2023-06-10T00:56:48;101480.19;;;21.69;50.21
72414;BME280;60995;52.154;4.498;2023-06-10T00:59:05;101477.63;;;21.68;50.35
72414;BME280;60995;52.154;4.498;2023-06-10T01:01:24;101482.94;;;21.69;50.13
72414;BME280;60995;52.154;4.498;2023-06-10T01:03:41;101483.16;;;21.68;50.32
72414;BME280;60995;52.154;4.498;2023-06-10T01:06:03;101488.28;;;21.71;50.41
72414;BME280;60995;52.154;4.498;2023-06-10T01:08:37;101480.66;;;21.73;50.25
72414;BME280;60995;52.154;4.498;2023-06-10T01:11:21;101480.91;;;21.56;50.58
72414;BME280;60995;52.154;4.498;2023-06-10T01:13:45;101477.06;;;21.57;50.45
72414;BME280;60995;52.154;4.498;2023-06-10T01:16:02;101476.72;;;21.60;50.31
72414;BME280;60995;52.154;4.498;2023-06-10T01:18:19;101472.78;;;21.55;50.45
72414;BME280;60995;52.154;4.498;2023-06-10T01:20:38;101481.25;;;21.53;50.43
72414;BME280;60995;52.154;4.498;2023-06-10T01:22:56;101480.91;;;21.56;50.23
72414;BME280;60995;52.154;4.498;2023-06-10T01:25:13;101488.22;;;21.49;50.59
72414;BME280;60995;52.154;4.498;2023-06-10T01:27:36;101483.88;;;21.40;50.73
72414;BME280;60995;52.154;4.498;2023-06-10T01:30:01;101487.00;;;21.37;50.97
72414;BME280;60995;52.154;4.498;2023-06-10T01:32:32;101487.38;;;21.34;51.02
72414;BME280;60995;52.154;4.498;2023-06-10T01:34:57;101483.78;;;21.33;50.70
72414;BME280;60995;52.154;4.498;2023-06-10T01:37:16;101495.78;;;21.25;50.74
72414;BME280;60995;52.154;4.498;2023-06-10T01:39:39;101485.50;;;21.19;51.25
72414;BME280;60995;52.154;4.498;2023-06-10T01:41:56;101493.13;;;21.17;51.25
72414;BME280;60995;52.154;4.498;2023-06-10T01:44:18;101491.16;;;21.11;51.35
72414;BME280;60995;52.154;4.498;2023-06-10T01:46:36;101481.63;;;20.98;51.19
72414;BME280;60995;52.154;4.498;2023-06-10T01:48:53;101484.66;;;21.04;50.91
72414;BME280;60995;52.154;4.498;2023-06-10T01:51:09;101489.13;;;21.05;50.94
72414;BME280;60995;52.154;4.498;2023-06-10T01:53:26;101488.47;;;21.03;50.71
72414;BME280;60995;52.154;4.498;2023-06-10T01:55:42;101480.88;;;21.05;50.84
72414;BME280;60995;52.154;4.498;2023-06-10T01:57:58;101486.78;;;21.02;50.83
72414;BME280;60995;52.154;4.498;2023-06-10T02:00:15;101486.09;;;20.99;51.02
72414;BME280;60995;52.154;4.498;2023-06-10T02:02:32;101482.03;;;20.95;50.71
72414;BME280;60995;52.154;4.498;2023-06-10T02:04:50;101489.81;;;20.92;50.96
72414;BME280;60995;52.154;4.498;2023-06-10T02:07:06;101480.78;;;20.98;50.63
72414;BME280;60995;52.154;4.498;2023-06-10T02:09:23;101486.50;;;20.96;50.72
72414;BME280;60995;52.154;4.498;2023-06-10T02:11:39;101487.63;;;20.87;50.76
72414;BME280;60995;52.154;4.498;2023-06-10T02:13:56;101485.63;;;20.81;50.98
72414;BME280;60995;52.154;4.498;2023-06-10T02:16:13;101486.28;;;20.83;51.09
72414;BME280;60995;52.154;4.498;2023-06-10T02:18:32;101490.84;;;20.76;51.18
72414;BME280;60995;52.154;4.498;2023-06-10T02:20:49;101486.56;;;20.73;50.84
72414;BME280;60995;52.154;4.498;2023-06-10T02:23:06;101499.03;;;20.84;50.67
72414;BME280;60995;52.154;4.498;2023-06-10T02:25:22;101492.44;;;20.70;51.29
72414;BME280;60995;52.154;4.498;2023-06-10T02:27:38;101497.97;;;20.70;51.29
72414;BME280;60995;52.154;4.498;2023-06-10T02:29:56;101492.81;;;20.67;51.18
72414;BME280;60995;52.154;4.498;2023-06-10T02:32:16;101493.66;;;20.67;50.90
72414;BME280;60995;52.154;4.498;2023-06-10T02:34:35;101498.31;;;20.67;50.91
72414;BME280;60995;52.154;4.498;2023-06-10T02:36:52;101495.16;;;20.55;51.28
72414;BME280;60995;52.154;4.498;2023-06-10T02:39:08;101510.00;;;20.54;51.31
72414;BME280;60995;52.154;4.498;2023-06-10T02:41:24;101497.16;;;20.46;51.33
72414;BME280;60995;52.154;4.498;2023-06-10T02:43:41;101501.06;;;20.52;51.24
72414;BME280;60995;52.154;4.498;2023-06-10T02:45:57;101503.88;;;20.44;51.33
72414;BME280;60995;52.154;4.498;2023-06-10T02:48:13;101499.44;;;20.43;51.60
72414;BME280;60995;52.154;4.498;2023-06-10T02:50:30;101499.16;;;20.38;51.48
72414;BME280;60995;52.154;4.498;2023-06-10T02:52:46;101502.56;;;20.40;51.67
72414;BME280;60995;52.154;4.498;2023-06-10T02:55:02;101496.81;;;20.26;51.42
72414;BME280;60995;52.154;4.498;2023-06-10T02:57:19;101494.41;;;20.23;51.90
72414;BME280;60995;52.154;4.498;2023-06-10T02:59:35;101496.44;;;20.29;51.70
72414;BME280;60995;52.154;4.498;2023-06-10T03:01:52;101500.50;;;20.19;51.83
72414;BME280;60995;52.154;4.498;2023-06-10T03:04:08;101495.50;;;20.22;51.78
72414;BME280;60995;52.154;4.498;2023-06-10T03:06:25;101502.69;;;20.23;51.67
72414;BME280;60995;52.154;4.498;2023-06-10T03:08:42;101502.13;;;20.13;51.73
72414;BME280;60995;52.154;4.498;2023-06-10T03:10:58;101500.75;;;20.09;51.94
72414;BME280;60995;52.154;4.498;2023-06-10T03:13:14;101499.16;;;20.14;51.79
72414;BME280;60995;52.154;4.498;2023-06-10T03:15:31;101497.34;;;20.07;52.43
72414;BME280;60995;52.154;4.498;2023-06-10T03:17:48;101496.00;;;20.03;52.07
72414;BME280;60995;52.154;4.498;2023-06-10T03:20:05;101494.38;;;20.08;52.17
72414;BME280;60995;52.154;4.498;2023-06-10T03:22:24;101497.34;;;20.07;52.13
72414;BME280;60995;52.154;4.498;2023-06-10T03:24:40;101504.56;;;20.08;52.56
72414;BME280;60995;52.154;4.498;2023-06-10T03:26:56;101500.63;;;20.02;52.71
72414;BME280;60995;52.154;4.498;2023-06-10T03:29:13;101494.78;;;20.05;52.36
72414;BME280;60995;52.154;4.498;2023-06-10T03:31:29;101505.09;;;20.03;52.51
72414;BME280;60995;52.154;4.498;2023-06-10T03:33:45;101503.19;;;20.04;52.43
72414;BME280;60995;52.154;4.498;2023-06-10T03:36:02;101510.72;;;20.10;52.27
72414;BME280;60995;52.154;4.498;2023-06-10T03:38:18;101513.00;;;20.06;52.39
72414;BME280;60995;52.154;4.498;2023-06-10T03:40:35;101509.28;;;19.99;52.29
72414;BME280;60995;52.154;4.498;2023-06-10T03:42:51;101519.28;;;20.15;52.25
72414;BME280;60995;52.154;4.498;2023-06-10T03:45:08;101513.00;;;20.06;52.39
72414;BME280;60995;52.154;4.498;2023-06-10T03:47:24;101516.53;;;20.15;52.36
72414;BME280;60995;52.154;4.498;2023-06-10T03:49:41;101522.06;;;20.15;52.18
72414;BME280;60995;52.154;4.498;2023-06-10T03:51:57;101522.78;;;20.09;52.11
72414;BME280;60995;52.154;4.498;2023-06-10T03:54:13;101524.16;;;20.13;52.18
72414;BME280;60995;52.154;4.498;2023-06-10T03:56:31;101523.19;;;20.21;52.06
72414;BME280;60995;52.154;4.498;2023-06-10T03:58:48;101529.88;;;20.26;51.69
72414;BME280;60995;52.154;4.498;2023-06-10T04:01:04;101523.41;;;20.19;52.28
72414;BME280;60995;52.154;4.498;2023-06-10T04:03:20;101519.16;;;20.31;52.32
72414;BME280;60995;52.154;4.498;2023-06-10T04:05:37;101523.66;;;20.32;52.05
72414;BME280;60995;52.154;4.498;2023-06-10T04:07:53;101527.56;;;20.38;52.24
72414;BME280;60995;52.154;4.498;2023-06-10T04:10:10;101521.66;;;20.41;51.73
72414;BME280;60995;52.154;4.498;2023-06-10T04:12:27;101519.00;;;20.48;51.39
72414;BME280;60995;52.154;4.498;2023-06-10T04:14:43;101527.97;;;20.50;51.67
72414;BME280;60995;52.154;4.498;2023-06-10T04:16:59;101528.25;;;20.55;52.06
72414;BME280;60995;52.154;4.498;2023-06-10T04:19:16;101529.38;;;20.46;52.18
72414;BME280;60995;52.154;4.498;2023-06-10T04:21:32;101533.88;;;20.62;52.04
72414;BME280;60995;52.154;4.498;2023-06-10T04:23:48;101531.50;;;20.59;52.21
72414;BME280;60995;52.154;4.498;2023-06-10T04:26:05;101529.22;;;20.62;52.17
72414;BME280;60995;52.154;4.498;2023-06-10T04:28:22;101539.75;;;20.82;51.72
72414;BME280;60995;52.154;4.498;2023-06-10T04:30:38;101544.13;;;20.91;51.61
72414;BME280;60995;52.154;4.498;2023-06-10T04:32:54;101544.97;;;20.77;52.04
72414;BME280;60995;52.154;4.498;2023-06-10T04:35:12;101545.28;;;20.82;52.21
72414;BME280;60995;52.154;4.498;2023-06-10T04:37:31;101546.31;;;20.96;51.91
72414;BME280;60995;52.154;4.498;2023-06-10T04:39:47;101550.00;;;20.88;51.90
72414;BME280;60995;52.154;4.498;2023-06-10T04:42:04;101553.94;;;20.94;51.84
72414;BME280;60995;52.154;4.498;2023-06-10T04:44:21;101554.59;;;20.96;52.06
72414;BME280;60995;52.154;4.498;2023-06-10T04:46:38;101537.47;;;21.01;52.18
72414;BME280;60995;52.154;4.498;2023-06-10T04:48:55;101547.94;;;21.20;51.85
72414;BME280;60995;52.154;4.498;2023-06-10T04:51:11;101549.94;;;21.11;51.60
72414;BME280;60995;52.154;4.498;2023-06-10T04:53:27;101548.44;;;21.24;51.68
72414;BME280;60995;52.154;4.498;2023-06-10T04:55:44;101549.00;;;21.34;51.15
72414;BME280;60995;52.154;4.498;2023-06-10T04:58:01;101547.19;;;21.26;51.55
72414;BME280;60995;52.154;4.498;2023-06-10T05:00:18;101546.75;;;21.44;51.26
72414;BME280;60995;52.154;4.498;2023-06-10T05:02:34;101544.31;;;21.35;50.95
72414;BME280;60995;52.154;4.498;2023-06-10T05:04:50;101535.88;;;21.73;50.11
72414;BME280;60995;52.154;4.498;2023-06-10T05:07:07;101553.75;;;22.13;49.16
72414;BME280;60995;52.154;4.498;2023-06-10T05:09:23;101547.84;;;22.88;47.34
72414;BME280;60995;52.154;4.498;2023-06-10T05:11:39;101548.00;;;24.25;44.06
72414;BME280;60995;52.154;4.498;2023-06-10T05:13:56;101549.69;;;25.07;41.89
72414;BME280;60995;52.154;4.498;2023-06-10T05:16:12;101542.56;;;25.45;40.33
72414;BME280;60995;52.154;4.498;2023-06-10T05:18:28;101538.25;;;25.55;40.25
72414;BME280;60995;52.154;4.498;2023-06-10T05:20:45;101533.09;;;25.66;40.27
72414;BME280;60995;52.154;4.498;2023-06-10T05:23:02;101533.94;;;25.66;39.91
72414;BME280;60995;52.154;4.498;2023-06-10T05:25:19;101536.50;;;25.61;39.81
72414;BME280;60995;52.154;4.498;2023-06-10T05:27:35;101546.00;;;25.40;39.93
72414;BME280;60995;52.154;4.498;2023-06-10T05:29:52;101537.72;;;25.72;40.20
72414;BME280;60995;52.154;4.498;2023-06-10T05:32:08;101538.78;;;25.25;40.29
72414;BME280;60995;52.154;4.498;2023-06-10T05:34:25;101546.63;;;25.87;39.28
72414;BME280;60995;52.154;4.498;2023-06-10T05:36:41;101546.34;;;25.96;39.26
72414;BME280;60995;52.154;4.498;2023-06-10T05:38:57;101544.66;;;26.84;38.04
72414;BME280;60995;52.154;4.498;2023-06-10T05:41:14;101553.75;;;27.16;37.12
72414;BME280;60995;52.154;4.498;2023-06-10T05:43:30;101548.25;;;28.80;33.88
72414;BME280;60995;52.154;4.498;2023-06-10T05:45:49;101549.41;;;28.37;34.18
72414;BME280;60995;52.154;4.498;2023-06-10T05:48:06;101552.75;;;27.29;36.00
72414;BME280;60995;52.154;4.498;2023-06-10T05:50:23;101549.59;;;27.93;35.42
72414;BME280;60995;52.154;4.498;2023-06-10T05:52:40;101558.75;;;28.43;34.39
72414;BME280;60995;52.154;4.498;2023-06-10T05:54:57;101557.91;;;28.54;34.25
72414;BME280;60995;52.154;4.498;2023-06-10T05:57:13;101559.44;;;27.96;34.97
72414;BME280;60995;52.154;4.498;2023-06-10T05:59:32;101565.16;;;28.43;34.32
72414;BME280;60995;52.154;4.498;2023-06-10T06:01:49;101558.72;;;27.70;35.95
72414;BME280;60995;52.154;4.498;2023-06-10T06:04:06;101552.97;;;28.68;34.48
72414;BME280;60995;52.154;4.498;2023-06-10T06:06:22;101546.28;;;29.69;32.53
72414;BME280;60995;52.154;4.498;2023-06-10T06:08:39;101552.84;;;29.10;33.41
72414;BME280;60995;52.154;4.498;2023-06-10T06:10:55;101542.88;;;29.67;32.45
72414;BME280;60995;52.154;4.498;2023-06-10T06:13:11;101547.56;;;29.49;32.48
72414;BME280;60995;52.154;4.498;2023-06-10T06:15:27;101552.88;;;28.86;33.22
72414;BME280;60995;52.154;4.498;2023-06-10T06:17:44;101548.25;;;28.68;34.26
72414;BME280;60995;52.154;4.498;2023-06-10T06:20:02;101560.50;;;28.25;34.30
72414;BME280;60995;52.154;4.498;2023-06-10T06:22:19;101556.06;;;28.36;34.30
72414;BME280;60995;52.154;4.498;2023-06-10T06:24:37;101549.22;;;29.33;32.62
72414;BME280;60995;52.154;4.498;2023-06-10T06:26:53;101553.94;;;29.09;32.67
72414;BME280;60995;52.154;4.498;2023-06-10T06:29:09;101548.09;;;29.23;33.38
72414;BME280;60995;52.154;4.498;2023-06-10T06:31:26;101549.34;;;30.76;30.96
72414;BME280;60995;52.154;4.498;2023-06-10T06:33:42;101551.88;;;30.44;32.03
72414;BME280;60995;52.154;4.498;2023-06-10T06:35:58;101549.19;;;31.22;29.84
72414;BME280;60995;52.154;4.498;2023-06-10T06:38:16;101557.34;;;31.63;29.06
72414;BME280;60995;52.154;4.498;2023-06-10T06:40:32;101550.13;;;30.55;30.94
72414;BME280;60995;52.154;4.498;2023-06-10T06:42:48;101550.69;;;30.40;31.80
72414;BME280;60995;52.154;4.498;2023-06-10T06:45:05;101561.38;;;31.72;29.86
72414;BME280;60995;52.154;4.498;2023-06-10T06:47:22;101553.31;;;30.97;29.94
72414;BME280;60995;52.154;4.498;2023-06-10T06:49:38;101555.84;;;30.31;31.29
72414;BME280;60995;52.154;4.498;2023-06-10T06:51:55;101553.25;;;30.75;30.46
72414;BME280;60995;52.154;4.498;2023-06-10T06:54:11;101562.31;;;31.16;29.63
72414;BME280;60995;52.154;4.498;2023-06-10T06:56:28;101557.97;;;31.70;29.05
72414;BME280;60995;52.154;4.498;2023-06-10T06:58:45;101559.59;;;32.75;27.39
72414;BME280;60995;52.154;4.498;2023-06-10T07:01:01;101560.25;;;32.93;26.75
72414;BME280;60995;52.154;4.498;2023-06-10T07:03:17;101560.69;;;31.21;29.20
72414;BME280;60995;52.154;4.498;2023-06-10T07:05:33;101561.91;;;30.91;29.50
72414;BME280;60995;52.154;4.498;2023-06-10T07:07:50;101566.84;;;31.40;29.13
72414;BME280;60995;52.154;4.498;2023-06-10T07:10:11;101567.94;;;32.10;27.98
72414;BME280;60995;52.154;4.498;2023-06-10T07:12:27;101562.97;;;31.90;28.56
72414;BME280;60995;52.154;4.498;2023-06-10T07:14:43;101564.59;;;33.69;26.01
72414;BME280;60995;52.154;4.498;2023-06-10T07:17:00;101572.28;;;32.51;26.68
72414;BME280;60995;52.154;4.498;2023-06-10T07:19:16;101570.16;;;33.48;26.43
72414;BME280;60995;52.154;4.498;2023-06-10T07:21:33;101558.00;;;34.78;24.93
72414;BME280;60995;52.154;4.498;2023-06-10T07:23:49;101563.28;;;33.92;25.39
72414;BME280;60995;52.154;4.498;2023-06-10T07:26:09;101563.59;;;32.85;27.20
72414;BME280;60995;52.154;4.498;2023-06-10T07:28:29;101559.66;;;34.07;25.69
72414;BME280;60995;52.154;4.498;2023-06-10T07:30:45;101564.09;;;35.32;23.95
72414;BME280;60995;52.154;4.498;2023-06-10T07:33:01;101567.22;;;36.70;23.22
72414;BME280;60995;52.154;4.498;2023-06-10T07:35:18;101567.03;;;36.91;22.53
72414;BME280;60995;52.154;4.498;2023-06-10T07:37:34;101565.22;;;35.31;24.23
72414;BME280;60995;52.154;4.498;2023-06-10T07:39:51;101564.44;;;34.27;25.44
72414;BME280;60995;52.154;4.498;2023-06-10T07:42:07;101560.84;;;34.84;25.17
72414;BME280;60995;52.154;4.498;2023-06-10T07:44:24;101568.00;;;35.47;24.99
72414;BME280;60995;52.154;4.498;2023-06-10T07:46:40;101560.78;;;34.94;24.52
72414;BME280;60995;52.154;4.498;2023-06-10T07:48:56;101564.56;;;35.55;24.54
72414;BME280;60995;52.154;4.498;2023-06-10T07:51:13;101550.06;;;36.91;22.51
72414;BME280;60995;52.154;4.498;2023-06-10T07:53:29;101557.28;;;35.43;25.31
72414;BME280;60995;52.154;4.498;2023-06-10T07:55:45;101563.97;;;36.82;23.11
72414;BME280;60995;52.154;4.498;2023-06-10T07:58:01;101557.41;;;34.82;25.55
72414;BME280;60995;52.154;4.498;2023-06-10T08:00:21;101553.34;;;35.29;25.07
72414;BME280;60995;52.154;4.498;2023-06-10T08:02:38;101562.28;;;35.67;24.70
72414;BME280;60995;52.154;4.498;2023-06-10T08:04:55;101564.25;;;36.86;22.95
72414;BME280;60995;52.154;4.498;2023-06-10T08:07:11;101562.09;;;37.02;22.88
72414;BME280;60995;52.154;4.498;2023-06-10T08:09:30;101567.28;;;35.86;23.83
72414;BME280;60995;52.154;4.498;2023-06-10T08:11:47;101571.88;;;35.66;24.57
72414;BME280;60995;52.154;4.498;2023-06-10T08:14:03;101563.44;;;35.56;24.93
72414;BME280;60995;52.154;4.498;2023-06-10T08:16:20;101570.56;;;35.27;25.04
72414;BME280;60995;52.154;4.498;2023-06-10T08:18:36;101570.50;;;35.53;24.77
72414;BME280;60995;52.154;4.498;2023-06-10T08:20:52;101563.06;;;34.61;25.88
72414;BME280;60995;52.154;4.498;2023-06-10T08:23:09;101568.44;;;35.74;24.46
72414;BME280;60995;52.154;4.498;2023-06-10T08:25:25;101570.09;;;35.05;25.43
72414;BME280;60995;52.154;4.498;2023-06-10T08:27:41;101567.75;;;37.26;22.76
72414;BME280;60995;52.154;4.498;2023-06-10T08:29:58;101566.38;;;36.35;23.78
72414;BME280;60995;52.154;4.498;2023-06-10T08:32:16;101573.91;;;36.05;24.24
72414;BME280;60995;52.154;4.498;2023-06-10T08:34:35;101573.69;;;35.26;24.89
72414;BME280;60995;52.154;4.498;2023-06-10T08:36:52;101568.63;;;33.94;26.17
72414;BME280;60995;52.154;4.498;2023-06-10T08:39:11;101559.13;;;34.52;26.04
72414;BME280;60995;52.154;4.498;2023-06-10T08:41:28;101567.66;;;36.83;23.35
72414;BME280;60995;52.154;4.498;2023-06-10T08:46:45;101563.19;;;37.79;21.91
72414;BME280;60995;52.154;4.498;2023-06-10T08:49:06;101562.91;;;37.75;22.05
72414;BME280;60995;52.154;4.498;2023-06-10T08:51:28;101562.09;;;37.50;22.21
72414;BME280;60995;52.154;4.498;2023-06-10T08:54:01;101570.06;;;38.30;21.15
72414;BME280;60995;52.154;4.498;2023-06-10T08:56:20;101565.25;;;36.31;24.06
72414;BME280;60995;52.154;4.498;2023-06-10T08:58:42;101567.03;;;36.22;24.10
72414;BME280;60995;52.154;4.498;2023-06-10T09:00:59;101564.69;;;37.47;22.59
72414;BME280;60995;52.154;4.498;2023-06-10T09:03:16;101565.69;;;38.37;21.82
72414;BME280;60995;52.154;4.498;2023-06-10T09:05:35;101563.47;;;38.67;20.96
72414;BME280;60995;52.154;4.498;2023-06-10T09:07:53;101576.84;;;35.90;24.49
72414;BME280;60995;52.154;4.498;2023-06-10T09:10:13;101568.41;;;36.64;23.91
72414;BME280;60995;52.154;4.498;2023-06-10T09:12:29;101566.44;;;38.24;21.12
72414;BME280;60995;52.154;4.498;2023-06-10T09:14:46;101568.00;;;37.54;22.15
72414;BME280;60995;52.154;4.498;2023-06-10T09:17:03;101567.75;;;35.98;23.79
72414;BME280;60995;52.154;4.498;2023-06-10T09:19:25;101570.09;;;36.95;23.09
72414;BME280;60995;52.154;4.498;2023-06-10T09:21:51;101571.53;;;36.92;22.94
72414;BME280;60995;52.154;4.498;2023-06-10T09:24:08;101567.81;;;37.69;22.55
72414;BME280;60995;52.154;4.498;2023-06-10T09:26:35;101566.28;;;35.56;24.84
72414;BME280;60995;52.154;4.498;2023-06-10T09:29:08;101567.91;;;37.16;22.81
72414;BME280;60995;52.154;4.498;2023-06-10T09:31:33;101567.25;;;37.67;22.32
72414;BME280;60995;52.154;4.498;2023-06-10T09:34:40;101565.53;;;37.90;21.82
72414;BME280;60995;52.154;4.498;2023-06-10T09:36:57;101569.66;;;37.79;22.06
72414;BME280;60995;52.154;4.498;2023-06-10T09:39:36;101568.53;;;38.37;21.41
72414;BME280;60995;52.154;4.498;2023-06-10T09:41:56;101567.91;;;36.86;22.95
72414;BME280;60995;52.154;4.498;2023-06-10T09:44:32;101576.97;;;37.61;22.41
72414;BME280;60995;52.154;4.498;2023-06-10T09:47:02;101585.81;;;37.06;22.93
72414;BME280;60995;52.154;4.498;2023-06-10T09:49:43;101576.38;;;36.17;23.98
72414;BME280;60995;52.154;4.498;2023-06-10T09:52:32;101573.09;;;35.29;25.01
72414;BME280;60995;52.154;4.498;2023-06-10T09:54:48;101566.78;;;36.18;24.36
72414;BME280;60995;52.154;4.498;2023-06-10T09:57:08;101569.00;;;34.70;25.88
72414;BME280;60995;52.154;4.498;2023-06-10T09:59:31;101569.09;;;36.06;24.49
72414;BME280;60995;52.154;4.498;2023-06-10T10:01:55;101569.63;;;36.13;24.24
72414;BME280;60995;52.154;4.498;2023-06-10T10:04:26;101572.66;;;34.60;26.61
72414;BME280;60995;52.154;4.498;2023-06-10T10:06:43;101572.59;;;35.22;25.44
72414;BME280;60995;52.154;4.498;2023-06-10T10:08:59;101570.25;;;35.44;25.51
72414;BME280;60995;52.154;4.498;2023-06-10T10:11:26;101567.50;;;35.19;25.66
72414;BME280;60995;52.154;4.498;2023-06-10T10:13:45;101574.56;;;35.16;25.55
72414;BME280;60995;52.154;4.498;2023-06-10T10:16:11;101569.91;;;35.61;25.06
72414;BME280;60995;52.154;4.498;2023-06-10T10:18:39;101572.34;;;35.08;25.55
72414;BME280;60995;52.154;4.498;2023-06-10T10:21:05;101565.88;;;34.97;25.35
72414;BME280;60995;52.154;4.498;2023-06-10T10:23:54;101556.78;;;35.91;24.56
72414;BME280;60995;52.154;4.498;2023-06-10T10:26:29;101564.84;;;36.08;24.24
72414;BME280;60995;52.154;4.498;2023-06-10T10:31:16;101555.31;;;35.99;24.44
72414;BME280;60995;52.154;4.498;2023-06-10T10:33:51;101557.78;;;36.51;23.67
72414;BME280;60995;52.154;4.498;2023-06-10T10:36:12;101552.63;;;34.82;25.65
72414;BME280;60995;52.154;4.498;2023-06-10T10:38:30;101552.06;;;35.06;25.27
72414;BME280;60995;52.154;4.498;2023-06-10T10:40:48;101552.28;;;35.15;25.36
72414;BME280;60995;52.154;4.498;2023-06-10T10:43:05;101559.47;;;35.62;24.53
72414;BME280;60995;52.154;4.498;2023-06-10T10:45:22;101542.09;;;36.34;23.61
72414;BME280;60995;52.154;4.498;2023-06-10T10:47:39;101551.59;;;36.78;22.86
72414;BME280;60995;52.154;4.498;2023-06-10T10:49:58;101550.84;;;35.22;24.34
72414;BME280;60995;52.154;4.498;2023-06-10T10:52:15;101551.72;;;35.83;23.90
72414;BME280;60995;52.154;4.498;2023-06-10T10:54:36;101553.38;;;36.69;22.95
72414;BME280;60995;52.154;4.498;2023-06-10T10:57:18;101544.88;;;35.44;24.36
72414;BME280;60995;52.154;4.498;2023-06-10T11:02:18;101544.63;;;36.36;23.00
72414;BME280;60995;52.154;4.498;2023-06-10T11:04:48;101550.53;;;36.39;23.09
72414;BME280;60995;52.154;4.498;2023-06-10T11:07:08;101546.66;;;35.85;23.87
72414;BME280;60995;52.154;4.498;2023-06-10T11:09:27;101541.66;;;36.17;23.14
72414;BME280;60995;52.154;4.498;2023-06-10T11:11:50;101534.06;;;37.05;22.51
72414;BME280;60995;52.154;4.498;2023-06-10T11:14:07;101540.09;;;37.66;21.92
72414;BME280;60995;52.154;4.498;2023-06-10T11:16:26;101542.88;;;36.00;23.25
72414;BME280;60995;52.154;4.498;2023-06-10T11:18:53;101532.25;;;35.82;23.79
72414;BME280;60995;52.154;4.498;2023-06-10T11:21:10;101529.34;;;35.42;23.31
72414;BME280;60995;52.154;4.498;2023-06-10T11:25:49;101537.25;;;36.69;22.46
72414;BME280;60995;52.154;4.498;2023-06-10T11:28:19;101527.53;;;34.91;24.18
72414;BME280;60995;52.154;4.498;2023-06-10T11:30:36;101519.66;;;34.72;24.83
72414;BME280;60995;52.154;4.498;2023-06-10T11:32:52;101526.03;;;35.24;24.76
72414;BME280;60995;52.154;4.498;2023-06-10T11:35:09;101520.78;;;34.66;24.63
72414;BME280;60995;52.154;4.498;2023-06-10T11:37:25;101521.38;;;34.73;24.47
72414;BME280;60995;52.154;4.498;2023-06-10T11:39:42;101518.56;;;34.58;24.63
72414;BME280;60995;52.154;4.498;2023-06-10T11:41:59;101520.63;;;35.38;23.85
72414;BME280;60995;52.154;4.498;2023-06-10T11:44:15;101514.25;;;34.97;23.94
72414;BME280;60995;52.154;4.498;2023-06-10T11:46:32;101512.63;;;34.08;24.75
72414;BME280;60995;52.154;4.498;2023-06-10T11:48:55;101516.75;;;33.69;25.52
72414;BME280;60995;52.154;4.498;2023-06-10T11:51:13;101513.75;;;34.27;24.96
72414;BME280;60995;52.154;4.498;2023-06-10T11:53:30;101510.09;;;34.73;24.00
72414;BME280;60995;52.154;4.498;2023-06-10T11:55:49;101530.06;;;34.00;25.19
72414;BME280;60995;52.154;4.498;2023-06-10T11:58:17;101510.28;;;33.74;25.15
72414;BME280;60995;52.154;4.498;2023-06-10T12:00:44;101504.44;;;33.96;25.63
72414;BME280;60995;52.154;4.498;2023-06-10T12:03:02;101517.41;;;34.02;25.56
72414;BME280;60995;52.154;4.498;2023-06-10T12:05:18;101506.50;;;33.32;26.22
72414;BME280;60995;52.154;4.498;2023-06-10T12:07:36;101495.56;;;33.41;26.16
72414;BME280;60995;52.154;4.498;2023-06-10T12:09:59;101496.16;;;33.53;25.70
72414;BME280;60995;52.154;4.498;2023-06-10T12:12:16;101503.31;;;33.87;25.37
72414;BME280;60995;52.154;4.498;2023-06-10T12:14:54;101506.81;;;33.41;25.75
72414;BME280;60995;52.154;4.498;2023-06-10T12:17:12;101498.84;;;34.42;24.60